createdAt,value
2022-12-16T00:00:01.617Z,432.9
2022-12-16T00:05:01.611Z,408.3
2022-12-16T00:10:01.543Z,420.0
2022-12-16T00:15:01.644Z,402.9
2022-12-16T00:20:01.475Z,416.9
2022-12-16T00:25:01.595Z,381.0
2022-12-16T00:30:01.739Z,388.5
2022-12-16T00:35:01.962Z,409.5
2022-12-16T00:40:01.471Z,393.3
2022-12-16T00:45:01.463Z,381.0
2022-12-16T00:50:01.475Z,413.9
2022-12-16T00:55:01.823Z,385.4
2022-12-16T01:00:01.486Z,366.2
2022-12-16T01:05:02.821Z,357.6
2022-12-16T01:10:01.512Z,332.0
2022-12-16T01:15:01.621Z,315.6
2022-12-16T01:20:01.513Z,315.2
2022-12-16T01:25:01.803Z,282.0
2022-12-16T01:30:01.706Z,269.2
2022-12-16T01:35:01.659Z,262.3
2022-12-16T01:40:01.450Z,244.0
2022-12-16T01:45:01.575Z,247.8
2022-12-16T02:05:01.736Z,258.2
2022-12-16T02:10:01.303Z,252.8
2022-12-16T02:15:01.407Z,242.7
2022-12-16T02:20:01.203Z,249.1
2022-12-16T02:35:02.145Z,372.2
2022-12-16T02:55:06.473Z,457.2
2022-12-16T03:00:01.251Z,450.0
2022-12-16T03:05:06.866Z,455.4
2022-12-16T03:10:01.316Z,455.7
2022-12-16T03:15:01.427Z,431.3
2022-12-16T03:20:01.308Z,432.4
2022-12-16T03:25:01.418Z,438.3
2022-12-16T03:30:01.539Z,444.4
2022-12-16T03:35:01.538Z,455.0
2022-12-16T03:40:01.259Z,483.4
2022-12-16T03:45:01.336Z,491.8
2022-12-16T03:50:01.193Z,498.3
2022-12-16T03:55:01.538Z,500.7
2022-12-16T04:00:01.191Z,481.1
2022-12-16T04:05:01.260Z,487.9
2022-12-16T04:10:01.189Z,497.8
2022-12-16T04:15:01.473Z,495.9
2022-12-16T04:20:01.207Z,501.3
2022-12-16T04:25:01.431Z,522.8
2022-12-16T04:30:01.396Z,515.6
2022-12-16T04:35:01.829Z,504.4
2022-12-16T04:40:01.822Z,498.4
2022-12-16T04:45:01.376Z,493.3
2022-12-16T04:50:01.548Z,457.1
2022-12-16T04:55:01.922Z,419.4
2022-12-16T05:00:01.433Z,402.5
2022-12-16T05:05:01.353Z,352.1
2022-12-16T05:10:01.300Z,323.9
2022-12-16T05:15:01.621Z,300.8
2022-12-16T05:20:01.386Z,292.4
2022-12-16T05:25:06.560Z,270.5
2022-12-16T05:30:01.368Z,287.0
2022-12-16T05:35:01.609Z,269.2
2022-12-16T05:40:01.547Z,286.0
2022-12-16T05:45:01.629Z,274.8
2022-12-16T05:50:01.510Z,261.0
2022-12-16T05:55:01.615Z,312.6
2022-12-16T06:00:01.295Z,303.1
2022-12-16T06:05:07.680Z,294.5
2022-12-16T06:10:01.265Z,318.0
2022-12-16T06:15:01.924Z,320.5
2022-12-16T06:20:01.198Z,266.7
2022-12-16T06:25:01.261Z,282.5
2022-12-16T06:30:01.218Z,286.2
2022-12-16T06:35:01.475Z,287.6
2022-12-16T06:40:01.281Z,298.0
2022-12-16T06:45:01.265Z,308.9
2022-12-16T06:50:01.200Z,316.0
2022-12-16T06:55:01.414Z,328.4
2022-12-16T07:00:01.887Z,333.2
2022-12-16T07:05:06.644Z,348.9
2022-12-16T07:10:01.200Z,351.5
2022-12-16T07:15:01.489Z,354.0
2022-12-16T07:20:01.267Z,362.8
2022-12-16T07:25:01.491Z,376.7
2022-12-16T07:35:01.536Z,392.8
2022-12-16T07:40:01.197Z,400.8
2022-12-16T07:45:01.458Z,404.3
2022-12-16T07:50:06.419Z,406.2
2022-12-16T07:55:01.496Z,407.3
2022-12-16T08:00:01.272Z,409.6
2022-12-16T08:10:01.378Z,414.9
2022-12-16T08:15:01.871Z,413.6
2022-12-16T08:25:01.406Z,421.6
2022-12-16T09:05:02.194Z,451.0
2022-12-16T09:20:01.884Z,449.7
2022-12-16T09:35:14.166Z,466.4
2022-12-16T09:40:01.938Z,474.8
2022-12-16T09:50:01.877Z,486.4
2022-12-16T09:55:02.174Z,485.4
2022-12-16T10:00:01.885Z,486.0
2022-12-16T10:05:02.069Z,484.4
2022-12-16T10:10:01.995Z,479.4
2022-12-16T10:35:01.269Z,450.0
2022-12-16T10:40:01.844Z,464.4
2022-12-16T10:50:01.954Z,460.1
2022-12-16T10:55:01.281Z,459.2
2022-12-16T11:20:01.683Z,481.8
2022-12-16T11:40:01.063Z,403.3
2022-12-16T11:50:02.129Z,416.2
2022-12-16T11:55:02.562Z,418.7
2022-12-16T12:00:01.445Z,441.1
2022-12-16T12:05:01.305Z,448.8
2022-12-16T12:10:01.147Z,434.5
2022-12-16T12:50:01.283Z,380.1
2022-12-16T13:00:03.221Z,391.0
2022-12-16T13:05:01.503Z,396.3
2022-12-16T13:10:01.866Z,399.8
2022-12-16T13:20:01.365Z,404.0
2022-12-16T13:25:01.436Z,402.0
2022-12-16T13:30:01.236Z,390.8
2022-12-16T13:35:01.542Z,387.6
2022-12-16T13:40:01.343Z,380.1
2022-12-16T14:00:01.326Z,422.7
2022-12-16T14:05:01.269Z,417.1
2022-12-16T14:20:01.193Z,413.1
2022-12-16T15:20:04.379Z,506.7
2022-12-16T15:50:04.973Z,629.0
2022-12-16T15:55:01.766Z,640.6
2022-12-16T16:25:01.534Z,563.7
2022-12-16T16:35:01.486Z,530.2
2022-12-16T16:40:01.487Z,521.3
2022-12-16T16:45:01.598Z,526.1
2022-12-16T16:50:01.527Z,570.8
2022-12-16T16:55:01.483Z,630.0
2022-12-16T17:00:01.726Z,649.8
2022-12-16T17:05:01.528Z,674.2
2022-12-16T17:10:02.765Z,686.0
2022-12-16T17:15:01.575Z,700.6
2022-12-16T17:35:01.593Z,695.6
2022-12-16T17:40:01.522Z,672.7
2022-12-16T17:45:01.555Z,675.9
2022-12-16T17:50:01.464Z,671.8
2022-12-16T17:55:01.661Z,670.1
2022-12-16T18:00:01.394Z,667.6
2022-12-16T18:10:01.467Z,657.9
2022-12-16T18:15:01.573Z,662.8
2022-12-16T18:20:01.403Z,661.8
2022-12-16T18:25:01.396Z,644.2
2022-12-16T18:30:01.406Z,639.9
2022-12-16T18:35:01.629Z,633.4
2022-12-16T18:40:01.404Z,612.5
2022-12-16T18:45:02.195Z,593.0
2022-12-16T18:50:01.478Z,578.3
2022-12-16T18:55:01.681Z,557.0
2022-12-16T19:05:01.593Z,531.9
2022-12-16T19:10:01.417Z,518.7
2022-12-16T19:20:01.493Z,499.6
2022-12-16T19:25:01.489Z,486.3
2022-12-16T19:30:01.499Z,473.9
2022-12-16T19:35:01.984Z,471.6
2022-12-16T19:40:01.560Z,470.0
2022-12-16T19:50:02.679Z,468.0
2022-12-16T19:55:01.629Z,468.0
2022-12-16T20:00:01.910Z,433.8
2022-12-16T20:05:01.622Z,439.0
2022-12-16T20:10:01.542Z,449.6
2022-12-16T20:15:01.648Z,464.5
2022-12-16T20:20:01.500Z,468.2
2022-12-16T20:25:01.784Z,510.1
2022-12-16T20:30:01.591Z,521.3
2022-12-16T20:35:01.622Z,517.2
2022-12-16T20:45:01.489Z,519.6
2022-12-16T20:50:01.481Z,502.4
2022-12-16T20:55:01.670Z,393.0
2022-12-16T21:00:01.790Z,396.6
2022-12-16T21:05:03.045Z,385.4
2022-12-16T21:10:01.501Z,318.3
2022-12-16T21:15:01.683Z,322.7
2022-12-16T21:20:01.482Z,417.1
2022-12-16T21:25:01.592Z,397.6
2022-12-16T21:30:01.490Z,386.6
2022-12-16T21:35:01.578Z,444.4
2022-12-16T21:40:01.421Z,450.1
2022-12-16T21:45:01.555Z,445.1
2022-12-16T21:50:01.455Z,452.1
2022-12-16T21:55:01.617Z,419.0
2022-12-16T22:00:01.575Z,412.2
2022-12-16T22:05:01.764Z,406.2
2022-12-16T22:10:01.545Z,410.2
2022-12-16T22:15:01.612Z,407.2
2022-12-16T22:20:02.597Z,456.5
2022-12-16T22:25:01.511Z,470.0
2022-12-16T22:35:01.777Z,493.2
2022-12-16T22:40:01.395Z,502.4
2022-12-16T22:45:01.653Z,506.7
2022-12-16T22:50:01.441Z,518.6
2022-12-16T23:00:01.392Z,474.4
2022-12-16T23:05:01.940Z,451.0
2022-12-16T23:15:01.663Z,389.2
2022-12-16T23:20:01.517Z,349.0
2022-12-16T23:25:01.788Z,354.2
2022-12-16T23:30:01.482Z,360.2
2022-12-16T23:35:01.592Z,348.5
2022-12-16T23:40:01.495Z,373.7
2022-12-16T23:45:01.543Z,425.8
2022-12-16T23:50:01.629Z,476.3
2022-12-16T23:55:01.668Z,475.7
